Aviation Digital Data Service (ADDS)

Output produced by METARs form (2001 UTC 20 September 2014)
found at http://aviationweather.gov/adds/metars/
 
KLAX 201727Z 2018/2124 15006KT P6SM BKN025 OVC035 
     FM202030 25013KT P6SM FEW035 
     FM210300 26007KT P6SM SCT015 
     FM210400 26006KT P6SM OVC012 
     FM210800 VRB03KT P6SM OVC015 
     FM211700 25007KT P6SM BKN022 
     FM212000 26012KT P6SM SCT025